Time;durP1;ratioP1;P1;durP2;ratioP2;P2;SDS_P1;SDS_P2;PMS_P1;PMS_P2;Temp;Humidity;BMP_temperature;BMP_pressure;BME280_temperature;BME280_humidity;BME280_pressure;Samples;Min_cycle;Max_cycle;Signal;HPM_P1;HPM_P2
2021/08/05 00:00:31;;;;;;;2.08;0.70;;;;;;;14.10;48.10;101270.78;5010707;28;20037;-68
2021/08/05 00:02:59;;;;;;;2.50;1.10;;;;;;;14.07;48.34;101262.19;5014664;28;20124;-67
2021/08/05 00:05:26;;;;;;;6.32;1.63;;;;;;;13.98;48.36;101270.50;5012020;28;20048;-67
2021/08/05 00:07:59;;;;;;;1.85;1.05;;;;;;;13.91;48.97;101267.34;5013840;28;20041;-66
2021/08/05 00:10:33;;;;;;;2.40;0.60;;;;;;;13.88;49.23;101267.50;5011814;28;20069;-67
2021/08/05 00:13:00;;;;;;;1.48;0.70;;;;;;;13.84;48.59;101258.88;5014254;28;20064;-66
2021/08/05 00:15:33;;;;;;;1.88;0.85;;;;;;;13.88;48.57;101260.44;5013352;28;20627;-67
2021/08/05 00:18:01;;;;;;;2.72;1.35;;;;;;;13.91;48.48;101260.28;5012302;28;20038;-66
2021/08/05 00:20:28;;;;;;;2.05;0.90;;;;;;;13.96;48.39;101256.59;5012429;28;20049;-66
2021/08/05 00:22:55;;;;;;;2.13;0.90;;;;;;;13.93;48.60;101257.59;5012850;28;20223;-66
2021/08/05 00:25:22;;;;;;;4.35;1.58;;;;;;;13.91;48.43;101248.94;5012253;28;20113;-65
2021/08/05 00:27:50;;;;;;;3.13;1.67;;;;;;;13.89;48.63;101253.41;5012034;28;20026;-67
2021/08/05 00:30:19;;;;;;;1.83;1.17;;;;;;;13.86;48.90;101262.31;5013774;28;20049;-67
2021/08/05 00:32:44;;;;;;;2.00;1.20;;;;;;;13.89;49.00;101251.63;4997358;28;20121;-66
2021/08/05 00:35:12;;;;;;;3.38;1.98;;;;;;;13.84;49.20;101248.38;5012303;28;20029;-67
2021/08/05 00:37:44;;;;;;;2.92;2.08;;;;;;;13.78;49.32;101259.19;5026383;28;20506;-66
2021/08/05 00:40:17;;;;;;;2.97;1.98;;;;;;;13.69;49.55;101257.00;5011575;28;20092;-70
2021/08/05 00:42:49;;;;;;;6.00;1.80;;;;;;;13.66;49.80;101255.38;5011742;28;20080;-66
2021/08/05 00:45:20;;;;;;;2.60;2.25;;;;;;;13.70;49.60;101249.03;5029350;28;20029;-68
2021/08/05 00:47:48;;;;;;;3.50;1.65;;;;;;;13.76;49.25;101250.50;5008939;28;20045;-68
2021/08/05 00:50:14;;;;;;;2.70;1.70;;;;;;;13.73;48.99;101251.50;5020709;28;20107;-66
2021/08/05 00:52:41;;;;;;;3.60;2.30;;;;;;;13.74;49.06;101252.34;5010051;28;20670;-66
2021/08/05 00:55:15;;;;;;;3.25;2.58;;;;;;;13.66;49.54;101244.84;5010122;28;20120;-66
2021/08/05 00:57:40;;;;;;;2.97;1.90;;;;;;;13.68;49.32;101244.78;5012030;28;20517;-66
2021/08/05 01:00:15;;;;;;;3.13;2.58;;;;;;;13.65;49.54;101242.28;4998727;28;20041;-68
2021/08/05 01:02:52;;;;;;;4.28;2.60;;;;;;;13.62;49.26;101245.91;5009922;28;20117;-67
2021/08/05 01:05:24;;;;;;;3.20;2.63;;;;;;;13.49;49.70;101242.97;5009931;28;20116;-66
2021/08/05 01:08:01;;;;;;;4.78;2.15;;;;;;;13.40;50.01;101243.41;5014900;28;20099;-66
2021/08/05 01:10:40;;;;;;;5.18;2.55;;;;;;;13.33;50.26;101237.56;5010225;28;20499;-66
2021/08/05 01:13:19;;;;;;;2.80;1.83;;;;;;;13.29;50.04;101240.41;5013483;28;20044;-66
2021/08/05 01:15:47;;;;;;;5.53;2.90;;;;;;;13.18;50.32;101234.81;5012432;28;20029;-67
2021/08/05 01:18:27;;;;;;;2.63;1.92;;;;;;;13.23;49.91;101231.06;5013444;28;20044;-66
2021/08/05 01:20:53;;;;;;;3.20;2.03;;;;;;;13.28;49.80;101234.31;5013570;28;20034;-66
2021/08/05 01:23:35;;;;;;;4.18;2.67;;;;;;;13.30;49.76;101232.47;5011895;28;20030;-67
2021/08/05 01:26:21;;;;;;;4.65;2.92;;;;;;;13.29;49.75;101230.78;5011821;28;20029;-67
2021/08/05 01:28:47;;;;;;;4.60;3.13;;;;;;;13.23;50.17;101224.97;5010399;28;20214;-69
2021/08/05 01:31:28;;;;;;;4.32;3.45;;;;;;;13.29;50.13;101235.16;5016371;28;20418;-66
2021/08/05 01:33:56;;;;;;;3.88;3.10;;;;;;;13.22;49.98;101223.25;5015109;28;20029;-67
2021/08/05 01:36:26;;;;;;;6.03;2.45;;;;;;;13.22;49.79;101223.25;5013850;28;20410;-65
2021/08/05 01:38:53;;;;;;;4.18;2.88;;;;;;;13.07;49.95;101217.78;5014602;28;20033;-67
2021/08/05 01:41:21;;;;;;;5.60;2.90;;;;;;;12.97;50.43;101213.88;5012594;28;20232;-65
2021/08/05 01:43:57;;;;;;;4.80;2.83;;;;;;;12.96;50.43;101208.69;5008986;28;20618;-66
2021/08/05 01:46:26;;;;;;;5.60;3.33;;;;;;;13.00;50.27;101213.72;5010537;28;20152;-68
2021/08/05 01:48:57;;;;;;;4.68;3.08;;;;;;;13.10;49.95;101204.53;5008826;28;20042;-68
2021/08/05 01:51:23;;;;;;;7.40;3.87;;;;;;;13.20;49.90;101209.34;5012440;28;20034;-66
2021/08/05 01:53:52;;;;;;;5.47;3.75;;;;;;;13.20;49.72;101201.47;5009696;28;20413;-65
2021/08/05 01:56:25;;;;;;;9.25;3.58;;;;;;;13.06;50.16;101205.56;5012045;28;20045;-66
2021/08/05 01:58:53;;;;;;;4.28;2.90;;;;;;;13.09;50.30;101202.84;5017520;28;20414;-67
2021/08/05 02:01:22;;;;;;;4.35;3.45;;;;;;;13.08;50.42;101201.09;5000905;28;20525;-66
2021/08/05 02:04:05;;;;;;;5.53;3.33;;;;;;;13.18;50.08;101200.69;5020251;28;20045;-66
2021/08/05 02:06:45;;;;;;;5.72;3.15;;;;;;;13.15;50.47;101196.44;5016357;28;20025;-66
2021/08/05 02:09:24;;;;;;;4.22;3.13;;;;;;;13.06;50.17;101195.06;5017692;28;20030;-66
2021/08/05 02:11:57;;;;;;;4.72;3.10;;;;;;;13.05;50.16;101190.75;5023837;28;20056;-65
2021/08/05 02:14:26;;;;;;;4.60;3.22;;;;;;;12.93;50.54;101185.22;5031464;28;20040;-67
2021/08/05 02:16:57;;;;;;;4.50;3.53;;;;;;;12.81;50.54;101187.47;5017013;28;20033;-66
2021/08/05 02:19:33;;;;;;;4.47;3.45;;;;;;;12.77;51.02;101185.91;5017207;28;20123;-65
2021/08/05 02:21:59;;;;;;;4.43;3.83;;;;;;;12.67;51.24;101185.44;5000514;28;20034;-65
2021/08/05 02:24:32;;;;;;;5.75;3.80;;;;;;;12.62;51.82;101186.53;5015331;28;20025;-67
2021/08/05 02:26:59;;;;;;;6.57;3.20;;;;;;;12.63;51.62;101181.22;5024941;28;20072;-68
2021/08/05 02:29:28;;;;;;;4.45;3.72;;;;;;;12.68;51.23;101181.88;5015997;28;20030;-67
2021/08/05 02:31:59;;;;;;;5.00;3.42;;;;;;;12.78;51.08;101181.50;5017945;28;20630;-66
2021/08/05 02:34:30;;;;;;;5.05;3.28;;;;;;;12.79;51.00;101177.97;5013547;28;20037;-66
2021/08/05 02:36:57;;;;;;;3.50;2.43;;;;;;;12.81;50.67;101169.09;5017814;28;20600;-68
2021/08/05 02:39:27;;;;;;;4.68;3.25;;;;;;;12.76;50.85;101167.59;5014418;28;20295;-66
2021/08/05 02:41:58;;;;;;;3.55;2.83;;;;;;;12.88;50.51;101173.16;5017857;28;20022;-65
2021/08/05 02:44:25;;;;;;;4.25;3.22;;;;;;;12.91;50.73;101172.16;5018646;28;20040;-69
2021/08/05 02:46:53;;;;;;;5.45;3.80;;;;;;;12.91;50.81;101174.78;5015659;28;20113;-67
2021/08/05 02:49:22;;;;;;;3.58;2.50;;;;;;;12.95;50.15;101172.88;5034182;28;20540;-66
2021/08/05 02:51:51;;;;;;;4.32;3.50;;;;;;;12.88;50.41;101172.31;5016135;28;20545;-65
2021/08/05 02:54:20;;;;;;;4.93;3.45;;;;;;;12.90;50.27;101165.22;5017448;28;20045;-66
2021/08/05 02:56:49;;;;;;;6.05;3.85;;;;;;;12.84;50.36;101163.72;5017435;28;20021;-67
2021/08/05 02:59:17;;;;;;;3.50;2.63;;;;;;;12.87;50.14;101160.97;5015794;28;20037;-66
2021/08/05 03:01:55;;;;;;;;;;;;;;;;;;;;;
2021/08/05 03:04:21;;;;;;;3.60;2.90;;;;;;;13.03;49.67;101152.41;5019449;28;20570;-65
2021/08/05 03:06:49;;;;;;;4.50;3.17;;;;;;;13.00;49.80;101150.75;5014501;28;20128;-67
2021/08/05 03:09:25;;;;;;;4.05;3.10;;;;;;;13.04;49.57;101147.06;5013001;28;20029;-67
2021/08/05 03:11:50;;;;;;;4.82;4.30;;;;;;;13.13;49.62;101140.53;5016501;28;20041;-67
2021/08/05 03:14:21;;;;;;;6.05;4.28;;;;;;;13.09;49.55;101139.84;5012807;28;20045;-67
2021/08/05 03:16:46;;;;;;;5.47;3.83;;;;;;;13.03;49.74;101134.88;5014989;28;20502;-67
2021/08/05 03:19:17;;;;;;;4.35;3.10;;;;;;;13.05;49.84;101138.28;5013210;28;20041;-67
2021/08/05 03:21:45;;;;;;;4.82;4.22;;;;;;;13.07;50.25;101138.19;5013211;28;20026;-66
2021/08/05 03:24:10;;;;;;;7.03;4.72;;;;;;;13.08;50.71;101132.88;5014356;28;20141;-66
2021/08/05 03:26:38;;;;;;;5.00;4.50;;;;;;;13.15;50.71;101133.44;5015692;28;20828;-68
2021/08/05 03:29:06;;;;;;;13.68;6.25;;;;;;;13.20;50.32;101128.81;5009696;28;20076;-66
2021/08/05 03:31:36;;;;;;;6.07;4.40;;;;;;;13.26;50.63;101125.06;5013741;28;20132;-67
2021/08/05 03:34:02;;;;;;;8.40;5.47;;;;;;;13.39;50.58;101122.72;5014446;28;20042;-67
2021/08/05 03:36:27;;;;;;;7.32;5.50;;;;;;;13.40;50.07;101129.66;5015884;28;20048;-68
2021/08/05 03:39:05;;;;;;;5.53;4.60;;;;;;;13.47;50.06;101124.06;5015408;28;20034;-68
2021/08/05 03:41:35;;;;;;;8.23;4.50;;;;;;;13.40;50.19;101127.88;5015083;28;20026;-66
2021/08/05 03:44:00;;;;;;;6.43;4.68;;;;;;;13.37;50.48;101128.03;5013590;28;20162;-67
2021/08/05 03:46:28;;;;;;;6.97;5.18;;;;;;;13.43;50.46;101132.13;5015421;28;20497;-66
2021/08/05 03:48:58;;;;;;;13.93;7.70;;;;;;;13.41;50.81;101140.09;5014368;28;20065;-69
2021/08/05 03:51:35;;;;;;;7.40;5.82;;;;;;;13.43;50.85;101140.88;5016447;28;20089;-67
2021/08/05 03:54:06;;;;;;;8.93;6.38;;;;;;;13.43;50.79;101138.25;5013724;28;20128;-66
2021/08/05 03:56:34;;;;;;;8.32;5.93;;;;;;;13.38;50.82;101129.72;5014578;28;20112;-67
2021/08/05 03:59:00;;;;;;;8.18;4.95;;;;;;;13.34;51.17;101128.19;5011440;28;20025;-66
2021/08/05 04:01:25;;;;;;;6.45;4.40;;;;;;;13.37;51.02;101121.94;5011720;28;20112;-66
2021/08/05 04:03:51;;;;;;;7.15;5.03;;;;;;;13.40;50.83;101130.50;5013261;28;20087;-66
2021/08/05 04:06:18;;;;;;;6.47;4.50;;;;;;;13.47;50.72;101136.31;5013681;28;20045;-68
2021/08/05 04:08:44;;;;;;;6.28;5.13;;;;;;;13.53;50.44;101129.00;5023934;28;20025;-68
2021/08/05 04:11:09;;;;;;;5.78;4.78;;;;;;;13.53;50.31;101126.38;5028211;28;20057;-69
2021/08/05 04:13:37;;;;;;;5.15;4.60;;;;;;;13.46;50.62;101130.22;5025335;28;20040;-67
2021/08/05 04:16:07;;;;;;;7.65;5.05;;;;;;;13.48;50.91;101119.66;5012265;28;20033;-68
2021/08/05 04:18:41;;;;;;;5.07;4.47;;;;;;;13.53;50.80;101118.50;5012482;28;20029;-66
2021/08/05 04:21:08;;;;;;;7.32;5.95;;;;;;;13.49;50.81;101124.81;5012543;28;20037;-67
2021/08/05 04:23:36;;;;;;;7.30;5.13;;;;;;;13.37;51.36;101128.03;5021790;28;20508;-66
2021/08/05 04:26:04;;;;;;;7.32;5.57;;;;;;;13.34;51.52;101122.94;5003955;28;20025;-68
2021/08/05 04:28:32;;;;;;;6.20;5.38;;;;;;;13.37;51.77;101114.91;5015819;28;20033;-69
2021/08/05 04:30:59;;;;;;;6.82;5.30;;;;;;;13.43;51.90;101112.00;5012340;28;20044;-67
2021/08/05 04:33:27;;;;;;;4.90;4.03;;;;;;;13.63;51.39;101112.81;5013889;28;20188;-66
2021/08/05 04:35:53;;;;;;;6.70;4.55;;;;;;;13.72;51.16;101115.84;5013232;28;20042;-66
2021/08/05 04:38:21;;;;;;;8.57;4.90;;;;;;;13.89;50.91;101116.78;5009619;28;20486;-67
2021/08/05 04:40:53;;;;;;;6.00;4.85;;;;;;;13.94;50.80;101115.63;5013635;28;20037;-67
2021/08/05 04:43:33;;;;;;;5.53;3.70;;;;;;;14.02;50.30;101114.41;5011703;28;20399;-68
2021/08/05 04:46:02;;;;;;;6.40;4.55;;;;;;;14.13;50.06;101117.31;5014931;28;20108;-67
2021/08/05 04:48:32;;;;;;;6.50;5.00;;;;;;;14.25;50.02;101119.31;5009318;28;20049;-67
2021/08/05 04:50:57;;;;;;;8.38;5.57;;;;;;;14.26;49.65;101120.19;5013608;28;20061;-68
2021/08/05 04:53:25;;;;;;;7.25;5.07;;;;;;;14.17;49.98;101118.88;5012510;28;20576;-66
2021/08/05 04:56:01;;;;;;;7.47;5.65;;;;;;;14.10;50.17;101118.34;5013532;28;20555;-66
2021/08/05 04:58:29;;;;;;;5.93;4.75;;;;;;;13.97;50.34;101116.41;5012073;28;20030;-68
2021/08/05 05:00:54;;;;;;;8.27;6.60;;;;;;;13.91;51.07;101115.78;5012740;28;20037;-66
2021/08/05 05:03:20;;;;;;;6.65;5.05;;;;;;;13.91;51.57;101107.06;5010503;28;20120;-68
2021/08/05 05:05:48;;;;;;;8.85;5.88;;;;;;;13.92;51.71;101112.25;5010745;28;20557;-66
2021/08/05 05:08:14;;;;;;;8.27;5.45;;;;;;;14.00;51.77;101106.56;5018369;28;20061;-65
2021/08/05 05:10:40;;;;;;;6.30;4.85;;;;;;;14.11;51.56;101109.50;5013919;28;20036;-67
2021/08/05 05:13:14;;;;;;;6.15;4.55;;;;;;;14.28;51.19;101097.28;5008753;28;20038;-66
2021/08/05 05:15:43;;;;;;;7.40;5.28;;;;;;;14.48;50.50;101097.13;5019583;28;20037;-69
2021/08/05 05:18:10;;;;;;;11.57;6.65;;;;;;;14.55;50.82;101098.50;5011765;28;20427;-67
2021/08/05 05:20:58;;;;;;;9.85;5.50;;;;;;;14.64;50.58;101091.88;5011246;28;20502;-66
2021/08/05 05:23:23;;;;;;;13.02;5.70;;;;;;;14.79;50.65;101092.84;5013485;28;20034;-68
2021/08/05 05:25:56;;;;;;;7.55;5.47;;;;;;;14.92;50.45;101082.47;5014883;28;20037;-68
2021/08/05 05:28:26;;;;;;;7.57;5.28;;;;;;;15.04;50.36;101083.59;5012045;28;20119;-67
2021/08/05 05:30:54;;;;;;;7.30;5.22;;;;;;;15.23;50.04;101083.44;5010437;28;20061;-66
2021/08/05 05:33:20;;;;;;;6.88;5.53;;;;;;;15.43;49.38;101085.78;5012038;28;20936;-68
2021/08/05 05:35:50;;;;;;;8.88;5.35;;;;;;;15.62;49.18;101087.34;5012580;28;20029;-67
2021/08/05 05:38:26;;;;;;;6.78;5.35;;;;;;;15.86;49.08;101078.00;5010239;28;20045;-69
2021/08/05 05:40:51;;;;;;;6.55;4.65;;;;;;;16.52;48.20;101071.41;5010479;28;20072;-67
2021/08/05 05:43:19;;;;;;;7.75;5.63;;;;;;;17.23;45.27;101067.81;5012268;28;20088;-66
2021/08/05 05:45:47;;;;;;;7.63;4.65;;;;;;;19.57;40.80;101067.44;5014142;28;20498;-66
2021/08/05 05:48:21;;;;;;;5.65;4.38;;;;;;;21.68;35.97;101072.00;5010529;28;20037;-67
2021/08/05 05:50:47;;;;;;;12.32;4.55;;;;;;;22.59;33.11;101071.22;5010439;28;20113;-68
2021/08/05 05:53:15;;;;;;;5.00;3.72;;;;;;;23.24;32.70;101068.13;5012747;28;20522;-68
2021/08/05 05:55:40;;;;;;;5.45;3.60;;;;;;;23.67;31.98;101074.84;5011667;28;20485;-67
2021/08/05 05:58:06;;;;;;;7.07;3.38;;;;;;;24.87;29.42;101055.47;5003491;28;20034;-68
2021/08/05 06:00:32;;;;;;;3.72;2.65;;;;;;;26.02;28.19;101061.75;5010599;28;20049;-68
2021/08/05 06:03:00;;;;;;;3.65;2.83;;;;;;;26.91;26.21;101063.16;5028288;28;20026;-67
2021/08/05 06:05:27;;;;;;;4.60;2.97;;;;;;;28.12;24.37;101062.47;5013092;28;20052;-66
2021/08/05 06:07:58;;;;;;;4.28;2.40;;;;;;;27.50;25.84;101063.06;5019586;28;20124;-67
2021/08/05 06:10:26;;;;;;;4.40;3.00;;;;;;;26.55;26.28;101060.69;5010395;28;20301;-67
2021/08/05 06:12:51;;;;;;;5.50;4.35;;;;;;;24.74;29.47;101060.31;5012669;28;20037;-67
2021/08/05 06:15:22;;;;;;;5.20;4.20;;;;;;;23.50;31.42;101063.09;5012153;28;20030;-66
2021/08/05 06:17:47;;;;;;;7.57;4.53;;;;;;;22.70;33.02;101064.97;5014038;28;20037;-67
2021/08/05 06:20:19;;;;;;;5.47;4.57;;;;;;;22.37;33.61;101060.78;5019144;28;20037;-68
2021/08/05 06:22:48;;;;;;;7.47;5.30;;;;;;;21.80;34.74;101065.63;5032170;28;20026;-66
2021/08/05 06:25:16;;;;;;;11.27;4.95;;;;;;;20.96;36.03;101067.31;5016998;28;20061;-66
2021/08/05 06:27:42;;;;;;;11.27;4.75;;;;;;;20.87;37.14;101071.56;5014868;28;20510;-68
2021/08/05 06:30:09;;;;;;;9.93;3.88;;;;;;;20.72;37.31;101076.25;5011201;28;20041;-66
2021/08/05 06:32:49;;;;;;;7.25;4.05;;;;;;;20.50;38.35;101077.94;5028409;28;20032;-66
2021/08/05 06:35:17;;;;;;;8.35;3.92;;;;;;;20.54;38.79;101071.44;5011537;28;20025;-66
2021/08/05 06:37:48;;;;;;;5.13;4.15;;;;;;;21.06;36.99;101073.56;5012562;28;20037;-66
2021/08/05 06:40:15;;;;;;;7.30;4.63;;;;;;;21.23;36.99;101074.84;5014971;28;20068;-67
2021/08/05 06:42:40;;;;;;;5.53;3.92;;;;;;;21.02;37.21;101074.75;5011333;28;20413;-68
2021/08/05 06:45:11;;;;;;;7.55;4.32;;;;;;;20.61;37.73;101074.44;5013338;28;20060;-67
2021/08/05 06:47:45;;;;;;;5.45;3.05;;;;;;;20.59;37.74;101076.38;5013132;28;20326;-67
2021/08/05 06:50:14;;;;;;;7.13;4.50;;;;;;;20.11;38.54;101072.13;5012329;28;20033;-67
2021/08/05 06:52:42;;;;;;;7.45;4.75;;;;;;;19.94;40.03;101075.25;5016626;28;20029;-66
2021/08/05 06:55:10;;;;;;;6.28;4.00;;;;;;;20.37;38.92;101076.38;5014615;28;20038;-68
2021/08/05 06:57:43;;;;;;;6.97;3.40;;;;;;;20.55;39.28;101069.63;5014034;28;20558;-68
2021/08/05 07:00:09;;;;;;;5.35;3.47;;;;;;;21.21;37.90;101077.59;5015334;28;20172;-68
2021/08/05 07:02:37;;;;;;;6.18;3.67;;;;;;;21.73;36.69;101078.59;5017970;28;20108;-66
2021/08/05 07:05:10;;;;;;;5.13;3.85;;;;;;;22.33;35.43;101078.00;5015320;28;20514;-67
2021/08/05 07:07:38;;;;;;;5.65;4.05;;;;;;;23.23;33.97;101079.78;5016488;28;20116;-66
2021/08/05 07:10:05;;;;;;;9.88;4.85;;;;;;;24.81;31.27;101072.91;5010734;28;20029;-66
2021/08/05 07:12:36;;;;;;;6.10;3.83;;;;;;;26.36;28.91;101068.97;5016940;28;20496;-67
2021/08/05 07:15:04;;;;;;;5.38;3.20;;;;;;;27.56;27.09;101066.91;5017179;28;20471;-69
2021/08/05 07:17:36;;;;;;;3.33;2.78;;;;;;;27.79;27.34;101059.88;5016046;28;20042;-65
2021/08/05 07:20:02;;;;;;;4.83;3.40;;;;;;;29.15;24.46;101064.19;5014337;28;20037;-66
2021/08/05 07:22:27;;;;;;;4.55;3.10;;;;;;;28.84;24.09;101059.66;5015084;28;20541;-67
2021/08/05 07:24:55;;;;;;;5.22;3.40;;;;;;;28.39;24.90;101057.66;5013240;28;20037;-68
2021/08/05 07:27:20;;;;;;;3.33;2.65;;;;;;;28.17;25.23;101064.66;5016089;28;20051;-67
2021/08/05 07:29:48;;;;;;;4.25;3.22;;;;;;;28.17;25.89;101065.50;5016491;28;20095;-67
2021/08/05 07:32:16;;;;;;;4.50;2.28;;;;;;;28.45;24.40;101059.66;5014664;28;20037;-67
2021/08/05 07:34:43;;;;;;;3.92;2.05;;;;;;;28.13;27.08;101056.94;5015384;28;20048;-68
2021/08/05 07:37:12;;;;;;;3.40;2.45;;;;;;;30.35;23.75;101060.63;5013807;28;20022;-68
2021/08/05 07:39:38;;;;;;;4.55;2.75;;;;;;;31.31;21.57;101065.81;5012041;28;20041;-67
2021/08/05 07:42:06;;;;;;;2.83;2.50;;;;;;;31.33;21.79;101059.19;5010395;28;20033;-69
2021/08/05 07:44:32;;;;;;;10.13;5.90;;;;;;;31.08;22.39;101061.47;5014674;28;20406;-68
2021/08/05 07:46:57;;;;;;;3.45;1.98;;;;;;;32.04;21.05;101055.56;5014858;28;20022;-67
2021/08/05 07:49:25;;;;;;;4.50;3.13;;;;;;;32.29;20.64;101053.19;5012700;28;20128;-67
2021/08/05 07:51:51;;;;;;;2.97;2.63;;;;;;;32.66;21.26;101048.34;5013500;28;20132;-67
2021/08/05 07:54:19;;;;;;;4.88;2.67;;;;;;;32.39;21.38;101044.72;5028202;28;20041;-67
2021/08/05 07:56:44;;;;;;;5.38;2.97;;;;;;;31.98;21.08;101049.09;5017447;28;20415;-66
2021/08/05 07:59:18;;;;;;;4.95;3.38;;;;;;;31.53;21.76;101059.38;5016069;28;20120;-69
2021/08/05 08:01:47;;;;;;;5.15;2.70;;;;;;;30.49;22.33;101051.69;5013234;28;20030;-67
2021/08/05 08:04:19;;;;;;;3.40;3.03;;;;;;;28.92;24.67;101061.44;5014833;28;20034;-66
2021/08/05 08:06:45;;;;;;;3.28;2.97;;;;;;;29.77;23.65;101050.50;5012950;28;20029;-70
2021/08/05 08:09:13;;;;;;;4.45;2.80;;;;;;;29.50;24.52;101061.84;5022409;28;20038;-69
2021/08/05 08:11:39;;;;;;;3.13;2.83;;;;;;;28.79;24.74;101059.34;5013033;28;20030;-66
2021/08/05 08:14:04;;;;;;;5.82;2.80;;;;;;;30.01;23.83;101053.09;5014264;28;20203;-70
2021/08/05 08:16:30;;;;;;;9.65;2.58;;;;;;;31.17;22.47;101046.81;5013440;28;20033;-67
2021/08/05 08:18:58;;;;;;;3.20;2.85;;;;;;;31.75;21.67;101045.81;5010083;28;20044;-67
2021/08/05 08:21:25;;;;;;;8.43;2.95;;;;;;;31.41;21.90;101050.13;5013107;28;20057;-67
2021/08/05 08:24:02;;;;;;;3.97;2.78;;;;;;;32.28;21.47;101035.31;5014426;28;20030;-67
2021/08/05 08:26:33;;;;;;;4.85;2.67;;;;;;;32.24;20.80;101040.25;5010770;28;20041;-68
2021/08/05 08:29:07;;;;;;;4.10;3.10;;;;;;;32.40;20.79;101033.69;5012294;28;20037;-66
2021/08/05 08:31:35;;;;;;;3.33;2.45;;;;;;;31.99;20.83;101045.34;5011855;28;20045;-66
2021/08/05 08:34:01;;;;;;;4.75;3.53;;;;;;;29.99;23.15;101037.09;4996422;28;20045;-71
2021/08/05 08:36:26;;;;;;;3.83;3.20;;;;;;;30.26;23.44;101038.31;5030825;28;20084;-67
2021/08/05 08:39:03;;;;;;;5.45;2.80;;;;;;;31.06;22.41;101041.94;5012160;28;20056;-67
2021/08/05 08:41:33;;;;;;;6.15;2.90;;;;;;;30.43;22.67;101040.81;5017962;28;20029;-69
2021/08/05 08:44:00;;;;;;;4.10;2.80;;;;;;;28.02;25.68;101045.72;5023000;28;20048;-69
2021/08/05 08:46:33;;;;;;;9.20;3.53;;;;;;;27.68;26.86;101036.06;5027095;28;20037;-70
2021/08/05 08:49:05;;;;;;;3.30;2.95;;;;;;;30.07;24.28;101031.63;5028641;28;20076;-70
2021/08/05 08:51:39;;;;;;;3.75;2.95;;;;;;;30.70;22.22;101026.63;5015709;28;20438;-68
2021/08/05 08:54:20;;;;;;;6.40;3.92;;;;;;;30.18;21.95;101028.50;5012713;28;20060;-69
2021/08/05 08:56:52;;;;;;;4.35;3.22;;;;;;;30.45;22.17;101023.41;5012408;28;20112;-68
2021/08/05 08:59:25;;;;;;;5.00;3.95;;;;;;;31.31;21.46;101028.00;5019137;28;20417;-67
2021/08/05 09:01:52;;;;;;;5.43;2.97;;;;;;;31.13;21.28;101023.94;5023410;28;20040;-69
2021/08/05 09:04:28;;;;;;;5.95;3.38;;;;;;;30.88;22.00;101023.47;5007438;28;20457;-67
2021/08/05 09:06:59;;;;;;;7.82;3.72;;;;;;;30.61;23.04;101019.69;5009337;28;20120;-66
2021/08/05 09:09:25;;;;;;;5.97;4.28;;;;;;;30.02;22.75;101011.63;5025131;28;20030;-69
2021/08/05 09:11:55;;;;;;;6.15;4.32;;;;;;;29.18;24.13;101017.22;5013969;28;20034;-70
2021/08/05 09:14:44;;;;;;;4.55;4.15;;;;;;;28.32;25.44;101007.31;5012443;28;20039;-69
2021/08/05 09:17:27;;;;;;;10.30;4.43;;;;;;;28.50;25.88;101016.94;5020043;28;20069;-69
2021/08/05 09:19:56;;;;;;;7.30;3.65;;;;;;;27.16;27.39;101007.75;5031566;28;20128;-69
2021/08/05 09:22:40;;;;;;;3.08;2.67;;;;;;;27.64;27.58;101013.25;5015910;28;20029;-66
2021/08/05 09:25:20;;;;;;;5.10;3.42;;;;;;;27.66;27.22;101011.22;5015685;28;20034;-66
2021/08/05 09:27:51;;;;;;;3.28;2.47;;;;;;;27.70;26.64;101005.34;5012918;28;20748;-68
2021/08/05 09:30:48;;;;;;;4.28;1.88;;;;;;;27.21;26.14;101005.38;5021123;28;20409;-69
2021/08/05 09:33:16;;;;;;;5.03;1.38;;;;;;;26.68;27.25;101015.53;5000857;28;20049;-67
2021/08/05 09:35:48;;;;;;;2.22;1.55;;;;;;;27.81;25.05;100998.78;5014922;28;20033;-68
2021/08/05 09:38:32;;;;;;;4.35;1.80;;;;;;;27.33;25.25;100997.81;5012677;28;20029;-68
2021/08/05 09:41:02;;;;;;;2.55;1.15;;;;;;;26.95;26.70;100999.31;5011928;28;20446;-67
2021/08/05 09:43:48;;;;;;;11.13;3.22;;;;;;;26.75;26.63;100993.44;5011308;28;20410;-68
2021/08/05 09:46:31;;;;;;;3.10;1.02;;;;;;;26.93;26.98;100996.78;5013533;28;20591;-69
2021/08/05 09:48:57;;;;;;;1.83;1.27;;;;;;;26.36;26.99;100989.47;5009957;28;20079;-67
2021/08/05 09:51:27;;;;;;;2.42;1.50;;;;;;;26.12;27.54;100986.72;5012216;28;20038;-66
2021/08/05 09:54:04;;;;;;;2.63;1.42;;;;;;;26.76;27.01;100984.38;5026213;28;20042;-68
2021/08/05 09:56:42;;;;;;;5.30;1.48;;;;;;;26.63;26.87;100985.72;5012106;28;20438;-67
2021/08/05 09:59:21;;;;;;;2.63;1.35;;;;;;;27.33;26.44;100981.72;5016740;28;20034;-67
2021/08/05 10:02:02;;;;;;;1.80;1.02;;;;;;;27.44;26.11;100984.06;5014455;28;20029;-71
2021/08/05 10:04:34;;;;;;;3.00;1.42;;;;;;;27.33;25.92;100981.72;5009110;28;20385;-67
2021/08/05 10:07:14;;;;;;;;;;;;;;;;;;;;;
2021/08/05 10:09:45;;;;;;;2.30;1.40;;;;;;;27.13;25.22;100981.22;5011183;28;20424;-67
2021/08/05 10:12:31;;;;;;;2.03;1.25;;;;;;;26.51;26.20;100976.25;5007299;28;20030;-66
2021/08/05 10:15:26;;;;;;;2.20;1.48;;;;;;;25.98;26.56;100975.56;5011074;28;20080;-69
2021/08/05 10:17:59;;;;;;;3.38;1.45;;;;;;;26.53;26.40;100971.56;5006867;28;20187;-69
2021/08/05 10:20:34;;;;;;;1.35;0.98;;;;;;;26.74;27.20;100971.16;5018820;28;20415;-66
2021/08/05 10:23:08;;;;;;;1.70;1.50;;;;;;;27.28;25.66;100959.94;5015230;28;20033;-66
2021/08/05 10:25:38;;;;;;;3.65;2.25;;;;;;;26.11;27.07;100974.28;5016649;28;20041;-70
2021/08/05 10:28:24;;;;;;;2.17;1.92;;;;;;;25.73;28.33;100969.22;5015525;28;20030;-67
2021/08/05 10:30:56;;;;;;;2.53;1.70;;;;;;;26.01;27.57;100963.69;5018820;28;20037;-69
2021/08/05 10:33:22;;;;;;;2.40;1.98;;;;;;;26.85;27.00;100956.59;5018735;28;20053;-68
2021/08/05 10:35:49;;;;;;;1.80;1.50;;;;;;;27.39;26.72;100956.06;5015977;28;20168;-67
2021/08/05 10:38:24;;;;;;;2.75;2.08;;;;;;;27.20;27.17;100954.56;5017069;28;20033;-70
2021/08/05 10:40:54;;;;;;;4.35;1.88;;;;;;;27.34;25.66;100944.97;5007258;28;20021;-67
2021/08/05 10:43:22;;;;;;;3.30;1.90;;;;;;;26.96;26.30;100950.03;5015123;28;20408;-67
2021/08/05 10:45:48;;;;;;;4.72;1.85;;;;;;;26.94;26.09;100943.97;5020690;28;20040;-67
2021/08/05 10:48:21;;;;;;;3.67;2.35;;;;;;;26.63;27.06;100944.66;5014656;28;20037;-69
2021/08/05 10:50:48;;;;;;;4.85;2.70;;;;;;;26.52;27.14;100937.75;5018069;28;20391;-69
2021/08/05 10:53:31;;;;;;;3.50;2.28;;;;;;;27.07;27.17;100934.44;5017370;28;20105;-68
2021/08/05 10:56:29;;;;;;;2.85;2.55;;;;;;;27.09;27.42;100937.81;5014876;28;20038;-69
2021/08/05 10:59:09;;;;;;;;;;;;;;;26.85;28.04;100932.44;5014963;28;20105;-66
2021/08/05 11:01:53;;;;;;;4.57;2.95;;;;;;;26.58;27.07;100934.44;5016555;28;19913;-67
2021/08/05 11:04:34;;;;;;;3.78;3.35;;;;;;;27.07;26.15;100926.41;5019762;28;20245;-69
2021/08/05 11:07:25;;;;;;;4.05;3.55;;;;;;;26.46;27.58;100927.69;5012559;28;20113;-65
2021/08/05 11:10:14;;;;;;;3.67;3.13;;;;;;;27.37;27.85;100918.66;5013767;28;20030;-67
2021/08/05 11:12:44;;;;;;;4.45;3.70;;;;;;;27.33;26.88;100911.94;5016380;28;20190;-69
2021/08/05 11:18:16;;;;;;;3.45;3.13;;;;;;;27.51;27.29;100912.56;5019723;28;20441;-68
2021/08/05 11:21:02;;;;;;;6.47;4.40;;;;;;;27.44;26.28;100913.44;5015735;28;20052;-67
2021/08/05 11:23:44;;;;;;;8.40;5.50;;;;;;;27.33;27.22;100908.44;5013359;28;20277;-67
2021/08/05 11:26:17;;;;;;;7.93;4.15;;;;;;;27.10;27.47;100906.44;5015536;28;20038;-67
2021/08/05 11:28:55;;;;;;;8.40;4.70;;;;;;;26.43;28.71;100910.09;5013311;28;20074;-67
2021/08/05 11:31:23;;;;;;;6.00;4.88;;;;;;;26.51;28.21;100909.25;5013611;28;20073;-67
2021/08/05 11:34:01;;;;;;;7.63;4.65;;;;;;;26.84;28.35;100901.25;5015679;28;20060;-69
2021/08/05 11:36:33;;;;;;;7.13;4.50;;;;;;;27.33;27.46;100903.06;5010655;28;20049;-68
2021/08/05 11:39:13;;;;;;;5.88;4.57;;;;;;;27.46;26.83;100895.31;5012996;28;20132;-67
2021/08/05 11:41:57;;;;;;;6.82;5.82;;;;;;;27.75;27.91;100888.53;5018715;28;20228;-67
2021/08/05 11:44:44;;;;;;;7.22;6.07;;;;;;;27.73;26.33;100886.00;5021858;28;20045;-70
2021/08/05 11:47:19;;;;;;;6.40;5.57;;;;;;;27.33;27.37;100878.91;5011983;28;20308;-69